createdAt,value
2022-09-07T00:02:32.445Z,100.00
2022-09-07T00:05:34.314Z,100.00
2022-09-07T00:08:38.150Z,100.00
2022-09-07T00:11:39.804Z,100.00
2022-09-07T00:14:41.437Z,100.00
2022-09-07T00:17:43.207Z,100.00
2022-09-07T00:20:45.189Z,100.00
2022-09-07T00:23:48.538Z,100.00
2022-09-07T00:26:50.337Z,100.00
2022-09-07T00:29:51.986Z,100.00
2022-09-07T00:32:53.738Z,100.00
2022-09-07T00:35:55.558Z,100.00
2022-09-07T00:38:58.649Z,100.00
2022-09-07T00:42:00.656Z,100.00
2022-09-07T00:45:07.540Z,100.00
2022-09-07T00:48:11.354Z,100.00
2022-09-07T00:51:15.066Z,100.00
2022-09-07T00:54:19.340Z,100.00
2022-09-07T00:57:21.087Z,100.00
2022-09-07T01:00:22.792Z,100.00
2022-09-07T01:03:26.100Z,100.00
2022-09-07T01:06:29.500Z,100.00
2022-09-07T01:09:32.737Z,100.00
2022-09-07T01:12:34.458Z,100.00
2022-09-07T01:15:42.344Z,100.00
2022-09-07T01:18:52.010Z,100.00
2022-09-07T01:22:00.268Z,100.00
2022-09-07T01:25:09.267Z,100.00
2022-09-07T01:28:15.877Z,100.00
2022-09-07T01:31:21.710Z,100.00
2022-09-07T01:34:24.970Z,100.00
2022-09-07T01:37:32.187Z,100.00
2022-09-07T01:40:38.423Z,100.00
2022-09-07T01:43:43.474Z,100.00
2022-09-07T01:46:49.797Z,100.00
2022-09-07T01:49:54.013Z,100.00
2022-09-07T01:52:59.080Z,100.00
2022-09-07T01:56:03.513Z,100.00
2022-09-07T01:59:09.071Z,100.00
2022-09-07T02:02:13.267Z,100.00
2022-09-07T02:05:17.353Z,100.00
2022-09-07T02:08:21.679Z,100.00
2022-09-07T02:11:25.326Z,100.00
2022-09-07T02:14:31.220Z,100.00
2022-09-07T02:17:33.853Z,100.00
2022-09-07T02:20:37.720Z,100.00
2022-09-07T02:23:40.955Z,100.00
2022-09-07T02:26:45.878Z,100.00
2022-09-07T02:29:48.929Z,100.00
2022-09-07T02:32:50.694Z,100.00
2022-09-07T02:35:52.405Z,100.00
2022-09-07T02:38:54.328Z,100.00
2022-09-07T02:41:56.075Z,100.00
2022-09-07T02:44:59.605Z,100.00
2022-09-07T02:48:09.441Z,100.00
2022-09-07T02:51:15.087Z,100.00
2022-09-07T02:54:26.997Z,100.00
2022-09-07T02:57:33.692Z,100.00
2022-09-07T03:00:40.671Z,100.00
2022-09-07T03:03:46.412Z,100.00
2022-09-07T03:06:50.047Z,100.00
2022-09-07T03:09:53.698Z,100.00
2022-09-07T03:12:55.469Z,100.00
2022-09-07T03:15:58.655Z,100.00
2022-09-07T03:19:00.390Z,100.00
2022-09-07T03:22:02.017Z,100.00
2022-09-07T03:25:04.544Z,100.00
2022-09-07T03:28:08.814Z,100.00
2022-09-07T03:31:12.050Z,100.00
2022-09-07T03:34:13.945Z,100.00
2022-09-07T03:37:15.788Z,100.00
2022-09-07T03:40:17.668Z,100.00
2022-09-07T03:43:19.322Z,100.00
2022-09-07T03:46:22.746Z,100.00
2022-09-07T03:49:24.501Z,100.00
2022-09-07T03:52:26.172Z,100.00
2022-09-07T03:55:27.819Z,100.00
2022-09-07T03:58:30.176Z,100.00
2022-09-07T04:01:33.316Z,100.00
2022-09-07T04:04:35.045Z,100.00
2022-09-07T04:07:36.704Z,100.00
2022-09-07T04:10:38.385Z,100.00
2022-09-07T04:13:40.417Z,100.00
2022-09-07T04:16:43.529Z,100.00
2022-09-07T04:19:45.219Z,100.00
2022-09-07T04:22:51.395Z,100.00
2022-09-07T04:25:55.342Z,100.00
2022-09-07T04:28:57.165Z,100.00
2022-09-07T04:32:00.240Z,100.00
2022-09-07T04:35:02.095Z,100.00
2022-09-07T04:38:03.886Z,100.00
2022-09-07T04:41:06.730Z,100.00
2022-09-07T04:44:13.642Z,100.00
2022-09-07T04:47:19.384Z,100.00
2022-09-07T04:50:21.045Z,100.00
2022-09-07T04:53:22.711Z,100.00
2022-09-07T04:56:24.455Z,100.00
2022-09-07T04:59:26.190Z,100.00
2022-09-07T05:02:29.264Z,100.00
2022-09-07T05:05:31.014Z,100.00
2022-09-07T05:08:36.075Z,100.00
2022-09-07T05:11:37.753Z,100.00
2022-09-07T05:14:39.439Z,100.00
2022-09-07T05:17:42.727Z,100.00
2022-09-07T05:20:44.426Z,100.00
2022-09-07T05:23:49.030Z,100.00
2022-09-07T05:26:50.724Z,100.00
2022-09-07T05:30:03.716Z,100.00
2022-09-07T05:33:08.030Z,100.00
2022-09-07T05:36:09.772Z,100.00
2022-09-07T05:39:11.690Z,100.00
2022-09-07T05:42:13.391Z,100.00
2022-09-07T05:45:15.133Z,100.00
2022-09-07T05:48:18.212Z,100.00
2022-09-07T05:51:19.930Z,100.00
2022-09-07T05:54:21.621Z,100.00
2022-09-07T05:57:23.311Z,100.00
2022-09-07T06:00:25.093Z,100.00
2022-09-07T06:03:28.213Z,100.00
2022-09-07T06:06:29.983Z,100.00
2022-09-07T06:09:31.706Z,100.00
2022-09-07T06:12:33.542Z,100.00
2022-09-07T06:15:35.236Z,100.00
2022-09-07T06:18:39.530Z,100.00
2022-09-07T06:21:41.316Z,100.00
2022-09-07T06:24:42.996Z,100.00
2022-09-07T06:27:47.291Z,100.00
2022-09-07T06:30:48.976Z,100.00
2022-09-07T06:33:52.296Z,100.00
2022-09-07T06:36:53.990Z,100.00
2022-09-07T06:39:55.833Z,100.00
2022-09-07T06:42:57.621Z,100.00
2022-09-07T06:49:22.497Z,100.00
2022-09-07T06:52:24.236Z,100.00
2022-09-07T06:55:26.014Z,100.00
2022-09-07T06:58:28.194Z,100.00
2022-09-07T07:01:29.955Z,100.00
2022-09-07T07:04:37.662Z,100.00
2022-09-07T07:07:41.394Z,100.00
2022-09-07T07:10:43.041Z,100.00
2022-09-07T07:13:44.658Z,100.00
2022-09-07T07:16:46.363Z,100.00
2022-09-07T07:19:49.457Z,100.00
2022-09-07T07:22:51.104Z,100.00
2022-09-07T07:25:52.774Z,100.00
2022-09-07T07:29:03.544Z,100.00
2022-09-07T07:32:05.975Z,100.00
2022-09-07T07:35:09.720Z,100.00
2022-09-07T07:48:16.169Z,100.00
2022-09-07T07:51:19.516Z,100.00
2022-09-07T07:54:21.280Z,100.00
2022-09-07T07:57:22.936Z,100.00
2022-09-07T08:00:50.837Z,100.00
2022-09-07T08:03:46.632Z,100.00
2022-09-07T08:06:49.628Z,100.00
2022-09-07T08:09:51.216Z,100.00
2022-09-07T08:12:53.302Z,100.00
2022-09-07T08:15:57.665Z,100.00
2022-09-07T08:18:59.439Z,100.00
2022-09-07T08:22:02.484Z,100.00
2022-09-07T08:25:04.874Z,100.00
2022-09-07T08:28:06.670Z,100.00
2022-09-07T08:31:09.258Z,100.00
2022-09-07T08:34:13.390Z,100.00
2022-09-07T08:37:16.388Z,100.00
2022-09-07T08:40:18.586Z,100.00
2022-09-07T08:43:28.871Z,100.00
2022-09-07T08:46:32.627Z,100.00
2022-09-07T08:49:42.091Z,100.00
2022-09-07T08:52:47.976Z,100.00
2022-09-07T08:55:51.053Z,100.00
2022-09-07T08:58:53.523Z,100.00
2022-09-07T09:05:21.711Z,100.00
2022-09-07T09:08:31.263Z,100.00
2022-09-07T09:11:39.420Z,100.00
2022-09-07T09:14:48.054Z,100.00
2022-09-07T09:17:55.491Z,100.00
2022-09-07T09:20:57.979Z,100.00
2022-09-07T09:24:05.838Z,100.00
2022-09-07T09:27:09.470Z,98.79
2022-09-07T09:30:12.823Z,99.59
2022-09-07T09:33:16.873Z,99.50
2022-09-07T09:36:24.202Z,100.00
2022-09-07T09:39:29.131Z,100.00
2022-09-07T09:42:32.740Z,100.00
2022-09-07T09:48:58.122Z,100.00
2022-09-07T09:52:31.777Z,100.00
2022-09-07T09:55:34.453Z,99.13
2022-09-07T10:05:26.742Z,89.05
2022-09-07T10:08:29.807Z,90.21
2022-09-07T10:15:08.104Z,89.15
2022-09-07T10:18:17.943Z,87.69
2022-09-07T10:21:24.360Z,87.28
2022-09-07T10:24:26.906Z,85.66
2022-09-07T10:27:31.572Z,88.64
2022-09-07T10:30:39.307Z,83.61
2022-09-07T10:34:25.760Z,84.38
2022-09-07T10:37:09.451Z,87.17
2022-09-07T10:40:20.719Z,89.13
2022-09-07T10:43:28.333Z,88.13
2022-09-07T10:53:41.232Z,88.24
2022-09-07T10:56:48.719Z,85.82
2022-09-07T11:00:10.914Z,84.81
2022-09-07T11:03:30.547Z,83.23
2022-09-07T11:06:35.059Z,83.43
2022-09-07T11:09:46.459Z,80.58
2022-09-07T11:12:50.845Z,81.89
2022-09-07T11:15:56.519Z,86.90
2022-09-07T11:22:27.721Z,80.97
2022-09-07T11:25:33.573Z,82.43
2022-09-07T11:28:41.420Z,81.03
2022-09-07T11:31:45.813Z,76.26
2022-09-07T11:34:52.132Z,77.73
2022-09-07T11:37:55.254Z,75.26
2022-09-07T11:41:05.193Z,74.82
2022-09-07T11:44:11.824Z,74.71
2022-09-07T11:47:19.801Z,74.55
2022-09-07T11:50:22.399Z,73.27
2022-09-07T11:53:25.387Z,71.26
2022-09-07T11:56:29.617Z,74.71
2022-09-07T11:59:42.419Z,72.27
2022-09-07T12:03:06.941Z,72.79
2022-09-07T12:06:21.502Z,73.43
2022-09-07T12:09:32.591Z,75.66
2022-09-07T12:12:43.956Z,73.53
2022-09-07T12:15:49.117Z,72.78
2022-09-07T12:19:10.912Z,72.82
2022-09-07T12:22:19.325Z,72.67
2022-09-07T12:25:21.090Z,71.85
2022-09-07T12:28:37.557Z,71.22
2022-09-07T12:31:57.266Z,72.69
2022-09-07T12:35:01.094Z,71.12
2022-09-07T12:38:03.685Z,73.14
2022-09-07T12:41:20.773Z,74.76
2022-09-07T12:44:28.547Z,73.55
2022-09-07T12:47:30.955Z,74.28
2022-09-07T12:50:39.151Z,75.35
2022-09-07T12:53:44.885Z,74.06
2022-09-07T12:57:29.213Z,72.06
2022-09-07T13:00:17.437Z,76.29
2022-09-07T13:07:08.936Z,73.86
2022-09-07T13:10:23.499Z,72.25
2022-09-07T13:20:21.047Z,69.41
2022-09-07T13:23:25.593Z,68.71
2022-09-07T13:26:49.336Z,69.25
2022-09-07T13:29:55.390Z,72.27
2022-09-07T13:33:15.590Z,70.17
2022-09-07T13:36:22.070Z,71.05
2022-09-07T13:39:25.550Z,71.87
2022-09-07T13:42:29.283Z,72.62
2022-09-07T13:45:34.721Z,73.26
2022-09-07T13:48:36.813Z,70.51
2022-09-07T13:51:42.536Z,71.36
2022-09-07T13:54:50.650Z,71.72
2022-09-07T13:57:58.941Z,69.94
2022-09-07T14:01:02.591Z,69.32
2022-09-07T14:04:04.345Z,67.05
2022-09-07T14:07:06.893Z,67.80
2022-09-07T14:10:14.141Z,69.57
2022-09-07T14:13:15.750Z,70.01
2022-09-07T14:16:17.429Z,71.18
2022-09-07T14:19:20.700Z,71.21
2022-09-07T14:22:23.075Z,69.33
2022-09-07T14:25:26.275Z,68.35
2022-09-07T14:28:29.446Z,68.72
2022-09-07T14:31:31.359Z,66.76
2022-09-07T14:34:34.121Z,67.44
2022-09-07T14:37:36.786Z,67.68
2022-09-07T14:40:40.209Z,67.55
2022-09-07T14:43:51.010Z,67.59
2022-09-07T14:46:56.539Z,68.22
2022-09-07T14:50:01.025Z,70.01
2022-09-07T14:56:30.076Z,69.42
2022-09-07T14:59:41.755Z,73.41
2022-09-07T15:02:44.950Z,68.66
2022-09-07T15:05:47.106Z,69.75
2022-09-07T15:08:49.009Z,73.60
2022-09-07T15:12:01.790Z,72.57
2022-09-07T15:15:10.428Z,73.08
2022-09-07T15:18:27.009Z,73.98
2022-09-07T15:21:29.696Z,72.90
2022-09-07T15:24:31.345Z,71.13
2022-09-07T15:27:34.369Z,71.47
2022-09-07T15:30:36.023Z,71.52
2022-09-07T15:33:37.687Z,70.83
2022-09-07T15:36:40.909Z,69.87
2022-09-07T15:39:43.741Z,65.78
2022-09-07T15:43:08.553Z,64.86
2022-09-07T15:46:08.913Z,69.31
2022-09-07T15:49:12.484Z,68.08
2022-09-07T15:52:14.287Z,68.29
2022-09-07T15:55:17.515Z,69.17
2022-09-07T15:58:21.059Z,66.64
2022-09-07T16:04:46.875Z,61.98
2022-09-07T16:11:18.361Z,64.62
2022-09-07T16:14:21.937Z,64.75
2022-09-07T16:17:27.309Z,63.25
2022-09-07T16:20:36.470Z,63.90
2022-09-07T16:23:38.557Z,61.26
2022-09-07T16:26:40.230Z,62.56
2022-09-07T16:29:43.584Z,61.61
2022-09-07T16:32:45.414Z,63.27
2022-09-07T16:35:55.692Z,61.57
2022-09-07T16:39:00.145Z,61.60
2022-09-07T16:42:02.224Z,60.95
2022-09-07T16:48:27.455Z,61.02
2022-09-07T16:51:29.138Z,62.60
2022-09-07T16:54:32.411Z,63.31
2022-09-07T16:58:35.181Z,64.66
2022-09-07T17:00:57.383Z,66.99
2022-09-07T17:03:59.532Z,68.31
2022-09-07T17:07:01.277Z,71.55
2022-09-07T17:10:03.002Z,71.92
2022-09-07T17:13:09.182Z,73.25
2022-09-07T17:16:13.691Z,75.52
2022-09-07T17:19:31.123Z,76.73
2022-09-07T17:22:33.043Z,77.29
2022-09-07T17:25:34.673Z,78.03
2022-09-07T17:28:36.831Z,79.27
2022-09-07T17:35:01.778Z,81.21
2022-09-07T17:39:14.358Z,81.81
2022-09-07T17:41:25.969Z,82.47
2022-09-07T17:44:29.824Z,83.50
2022-09-07T17:47:36.385Z,84.26
2022-09-07T17:50:38.211Z,84.81
2022-09-07T17:53:40.201Z,84.81
2022-09-07T17:56:42.425Z,85.48
2022-09-07T18:03:07.522Z,88.29
2022-09-07T18:06:09.571Z,88.04
2022-09-07T18:09:11.784Z,88.58
2022-09-07T18:12:13.744Z,89.39
2022-09-07T18:15:16.174Z,89.59
2022-09-07T18:18:19.636Z,90.54
2022-09-07T18:21:22.688Z,91.43
2022-09-07T18:24:25.035Z,90.59
2022-09-07T18:27:27.023Z,91.06
2022-09-07T18:30:30.405Z,91.75
2022-09-07T18:33:34.027Z,92.61
2022-09-07T18:36:36.023Z,92.67
2022-09-07T18:39:38.058Z,92.62
2022-09-07T18:42:40.547Z,93.52
2022-09-07T18:45:42.764Z,93.76
2022-09-07T18:48:46.516Z,93.80
2022-09-07T18:55:10.296Z,93.72
2022-09-07T18:58:12.449Z,93.94
2022-09-07T19:01:15.586Z,94.20
2022-09-07T19:04:21.627Z,94.69
2022-09-07T19:07:27.523Z,95.00
2022-09-07T19:10:33.782Z,95.96
2022-09-07T19:13:36.275Z,96.44
2022-09-07T19:16:38.904Z,95.64
2022-09-07T19:19:43.236Z,95.62
2022-09-07T19:22:45.234Z,95.50
2022-09-07T19:25:47.252Z,95.39
2022-09-07T19:28:53.196Z,96.07
2022-09-07T19:31:55.285Z,96.00
2022-09-07T19:34:58.757Z,97.04
2022-09-07T19:38:00.829Z,97.31
2022-09-07T19:41:03.426Z,97.00
2022-09-07T19:44:06.363Z,97.69
2022-09-07T19:47:08.467Z,97.61
2022-09-07T19:50:11.942Z,97.28
2022-09-07T19:53:16.452Z,97.32
2022-09-07T19:56:19.448Z,98.01
2022-09-07T19:59:21.653Z,99.23
2022-09-07T20:02:23.373Z,98.83
2022-09-07T20:05:26.880Z,99.17
2022-09-07T20:08:29.778Z,99.11
2022-09-07T20:11:32.406Z,98.56
2022-09-07T20:14:35.019Z,99.59
2022-09-07T20:17:37.076Z,99.08
2022-09-07T20:20:40.447Z,99.77
2022-09-07T20:23:42.839Z,100.00
2022-09-07T20:26:44.880Z,100.00
2022-09-07T20:29:46.561Z,100.00
2022-09-07T20:32:48.206Z,100.00
2022-09-07T20:35:51.507Z,100.00
2022-09-07T20:38:54.266Z,100.00
2022-09-07T20:41:55.901Z,100.00
2022-09-07T20:44:57.717Z,100.00
2022-09-07T20:47:59.318Z,100.00
2022-09-07T20:51:02.306Z,100.00
2022-09-07T20:54:03.971Z,100.00
2022-09-07T20:57:05.601Z,100.00
2022-09-07T21:00:07.687Z,100.00
2022-09-07T21:03:09.721Z,100.00
2022-09-07T21:06:12.959Z,100.00
2022-09-07T21:09:14.573Z,100.00
2022-09-07T21:12:16.921Z,100.00
2022-09-07T21:15:18.590Z,100.00
2022-09-07T21:18:20.208Z,100.00
2022-09-07T21:21:23.574Z,100.00
2022-09-07T21:24:25.300Z,100.00
2022-09-07T21:27:26.878Z,100.00
2022-09-07T21:30:28.448Z,100.00
2022-09-07T21:33:30.783Z,100.00
2022-09-07T21:36:33.749Z,100.00
2022-09-07T21:39:35.410Z,100.00
2022-09-07T21:42:37.130Z,100.00
2022-09-07T21:45:38.741Z,100.00
2022-09-07T21:48:40.360Z,100.00
2022-09-07T21:51:43.301Z,100.00
2022-09-07T21:54:44.902Z,100.00
2022-09-07T21:57:46.494Z,100.00
2022-09-07T22:00:48.178Z,100.00
2022-09-07T22:03:53.121Z,100.00
2022-09-07T22:06:56.072Z,100.00
2022-09-07T22:09:57.709Z,100.00
2022-09-07T22:12:59.292Z,100.00
2022-09-07T22:16:01.114Z,100.00
2022-09-07T22:19:02.784Z,100.00
2022-09-07T22:22:05.806Z,100.00
2022-09-07T22:25:07.719Z,100.00
2022-09-07T22:28:09.348Z,100.00
2022-09-07T22:31:11.962Z,100.00
2022-09-07T22:34:13.560Z,100.00
2022-09-07T22:37:16.551Z,100.00
2022-09-07T22:40:18.121Z,100.00
2022-09-07T22:43:19.757Z,100.00
2022-09-07T22:46:22.523Z,100.00
2022-09-07T22:49:24.202Z,100.00
2022-09-07T22:52:27.173Z,100.00
2022-09-07T22:55:28.752Z,100.00
2022-09-07T22:58:30.336Z,100.00
2022-09-07T23:01:32.349Z,100.00
2022-09-07T23:04:34.047Z,100.00
2022-09-07T23:07:37.189Z,100.00
2022-09-07T23:10:38.769Z,100.00
2022-09-07T23:13:40.353Z,100.00
2022-09-07T23:16:42.036Z,100.00
2022-09-07T23:19:43.656Z,100.00
2022-09-07T23:22:46.617Z,100.00
2022-09-07T23:25:48.415Z,100.00
2022-09-07T23:28:53.748Z,100.00
2022-09-07T23:31:55.364Z,100.00
2022-09-07T23:34:56.988Z,100.00
2022-09-07T23:38:00.032Z,100.00
2022-09-07T23:41:01.882Z,100.00
2022-09-07T23:44:03.794Z,100.00
2022-09-07T23:47:05.470Z,100.00
2022-09-07T23:50:07.423Z,100.00
2022-09-07T23:53:10.463Z,100.00
2022-09-07T23:56:12.135Z,100.00
2022-09-07T23:59:13.754Z,100.00
